Time;durP1;ratioP1;P1;durP2;ratioP2;P2;SDS_P1;SDS_P2;PMS_P1;PMS_P2;Temp;Humidity;BMP_temperature;BMP_pressure;BME280_temperature;BME280_humidity;BME280_pressure;Samples;Min_cycle;Max_cycle;Signal;HPM_P1;HPM_P2
2022/10/18 00:01:01;;;;;;;27.92;20.48;;;18.40;99.90;;;;;;5058858;28;20131;-75
2022/10/18 00:03:29;;;;;;;29.52;20.85;;;18.40;99.90;;;;;;5065529;28;20082;-69
2022/10/18 00:05:57;;;;;;;32.53;19.48;;;18.40;99.90;;;;;;5064607;28;20554;-78
2022/10/18 00:08:25;;;;;;;28.23;19.02;;;18.40;99.90;;;;;;5083109;28;20044;-69
2022/10/18 00:10:54;;;;;;;29.75;17.83;;;18.40;99.90;;;;;;5081338;28;20044;-70
2022/10/18 00:13:22;;;;;;;30.42;19.42;;;18.40;99.90;;;;;;5062621;28;20390;-70
2022/10/18 00:15:54;;;;;;;27.88;18.55;;;18.30;99.90;;;;;;5056675;28;20040;-68
2022/10/18 00:18:22;;;;;;;30.10;20.80;;;18.40;99.90;;;;;;5046248;28;20410;-68
2022/10/18 00:21:05;;;;;;;34.10;20.00;;;18.40;99.90;;;;;;5070144;28;20062;-70
2022/10/18 00:23:34;;;;;;;27.55;18.35;;;18.30;99.90;;;;;;5066219;28;20489;-69
2022/10/18 00:26:03;;;;;;;33.50;20.02;;;18.40;99.90;;;;;;5077611;28;20068;-71
2022/10/18 00:28:33;;;;;;;29.80;20.35;;;18.30;99.90;;;;;;5082475;28;20047;-71
2022/10/18 00:31:16;;;;;;;30.50;20.77;;;18.30;99.90;;;;;;5061540;28;20063;-71
2022/10/18 00:33:50;;;;;;;29.63;19.52;;;18.20;99.90;;;;;;5066284;28;20109;-79
2022/10/18 00:36:19;;;;;;;29.45;18.88;;;18.30;99.90;;;;;;5082874;28;20083;-71
2022/10/18 00:38:48;;;;;;;30.80;19.45;;;18.20;99.90;;;;;;5082851;28;20436;-77
2022/10/18 00:41:18;;;;;;;30.80;21.38;;;18.30;99.90;;;;;;5072399;28;20078;-73
2022/10/18 00:44:02;;;;;;;26.85;18.77;;;18.20;99.90;;;;;;5082358;28;20048;-71
2022/10/18 00:46:35;;;;;;;31.55;19.58;;;18.30;99.90;;;;;;5083417;28;20044;-69
2022/10/18 00:49:12;;;;;;;29.95;18.70;;;18.20;99.90;;;;;;5081138;28;20040;-69
2022/10/18 00:51:50;;;;;;;27.23;19.20;;;18.30;99.90;;;;;;5080610;28;20043;-70
2022/10/18 00:54:19;;;;;;;28.50;18.27;;;18.20;99.90;;;;;;5065132;28;20691;-70
2022/10/18 00:56:47;;;;;;;28.27;17.95;;;18.30;99.90;;;;;;5087691;28;20185;-69
2022/10/18 00:59:17;;;;;;;30.30;22.88;;;18.30;99.90;;;;;;5069970;28;20044;-72
2022/10/18 01:01:45;;;;;;;32.13;19.77;;;18.20;99.90;;;;;;5076000;28;20040;-69
2022/10/18 01:04:14;;;;;;;30.60;19.65;;;18.30;99.90;;;;;;5070776;28;20067;-70
2022/10/18 01:07:08;;;;;;;25.52;17.48;;;18.20;99.90;;;;;;5087429;28;20079;-71
2022/10/18 01:09:51;;;;;;;31.17;20.38;;;18.20;99.90;;;;;;5084058;28;20051;-72
2022/10/18 01:12:44;;;;;;;34.25;19.63;;;18.20;99.90;;;;;;5070139;28;20101;-73
2022/10/18 01:15:16;;;;;;;29.77;19.10;;;18.20;99.90;;;;;;5087913;28;20060;-76
2022/10/18 01:17:56;;;;;;;28.40;18.77;;;18.20;99.90;;;;;;5070302;28;20133;-69
2022/10/18 01:20:49;;;;;;;30.85;18.88;;;18.20;99.90;;;;;;5087336;28;20137;-75
2022/10/18 01:23:46;;;;;;;28.15;17.48;;;18.20;99.90;;;;;;5074737;28;20169;-72
2022/10/18 01:26:39;;;;;;;28.58;17.35;;;18.20;99.90;;;;;;5056281;28;20052;-72
2022/10/18 01:29:15;;;;;;;27.05;20.40;;;18.20;99.90;;;;;;5085686;28;20056;-70
2022/10/18 01:31:52;;;;;;;28.40;17.75;;;18.20;99.90;;;;;;5080653;28;20055;-70
2022/10/18 01:34:23;;;;;;;28.80;18.08;;;18.10;99.90;;;;;;5076923;28;20036;-70
2022/10/18 01:36:54;;;;;;;27.42;18.17;;;18.20;99.90;;;;;;5064463;28;20048;-68
2022/10/18 01:39:26;;;;;;;30.08;19.65;;;18.20;99.90;;;;;;5075005;28;20052;-70
2022/10/18 01:41:57;;;;;;;30.70;18.88;;;18.10;99.90;;;;;;5075927;28;20040;-69
2022/10/18 01:44:27;;;;;;;26.30;17.80;;;18.10;99.90;;;;;;5073313;28;20049;-69
2022/10/18 01:46:57;;;;;;;28.83;19.08;;;18.10;99.90;;;;;;5074764;28;20045;-72
2022/10/18 01:49:25;;;;;;;29.80;18.25;;;18.10;99.90;;;;;;5033895;28;20052;-69
2022/10/18 01:51:53;;;;;;;30.17;17.98;;;18.10;99.90;;;;;;5066671;28;20055;-72
2022/10/18 01:54:28;;;;;;;28.25;17.60;;;18.10;99.90;;;;;;5049807;28;20045;-73
2022/10/18 01:57:16;;;;;;;30.13;19.73;;;18.10;99.90;;;;;;5049805;28;20049;-70
2022/10/18 02:00:02;;;;;;;27.52;18.77;;;18.10;99.90;;;;;;5048969;28;20053;-71
2022/10/18 02:02:40;;;;;;;30.20;19.95;;;18.00;99.90;;;;;;5067813;28;20055;-68
2022/10/18 02:05:32;;;;;;;28.55;19.92;;;18.10;99.90;;;;;;5067159;28;20455;-69
2022/10/18 02:08:08;;;;;;;29.40;19.55;;;18.00;99.90;;;;;;5065349;28;20508;-71
2022/10/18 02:11:05;;;;;;;31.42;20.77;;;18.00;99.90;;;;;;5068113;28;20047;-70
2022/10/18 02:13:44;;;;;;;31.98;20.77;;;18.00;99.90;;;;;;5066652;28;20075;-71
2022/10/18 02:16:37;;;;;;;30.77;18.58;;;18.00;99.90;;;;;;5050579;28;20048;-72
2022/10/18 02:19:21;;;;;;;32.28;20.38;;;18.10;99.90;;;;;;5069266;28;20524;-71
2022/10/18 02:21:51;;;;;;;31.63;19.13;;;18.10;99.90;;;;;;5052535;28;20072;-70
2022/10/18 02:24:22;;;;;;;31.30;18.73;;;18.10;99.90;;;;;;5085385;28;20058;-69
2022/10/18 02:26:50;;;;;;;30.83;20.02;;;18.10;99.90;;;;;;5085905;28;20051;-69
2022/10/18 02:29:18;;;;;;;31.65;20.98;;;18.10;99.90;;;;;;5053209;28;20144;-72
2022/10/18 02:31:49;;;;;;;31.50;20.75;;;18.10;99.90;;;;;;5052899;28;20060;-77
2022/10/18 02:34:38;;;;;;;29.75;19.70;;;18.10;99.90;;;;;;5087726;28;20089;-75
2022/10/18 02:37:06;;;;;;;33.42;19.45;;;18.10;99.90;;;;;;5087400;28;20064;-73
2022/10/18 02:39:36;;;;;;;30.40;21.00;;;18.20;99.90;;;;;;5085553;28;20051;-73
2022/10/18 02:42:08;;;;;;;31.95;19.90;;;18.20;99.90;;;;;;5052113;28;20052;-70
2022/10/18 02:44:37;;;;;;;32.80;19.52;;;18.10;99.90;;;;;;5085369;28;20074;-69
2022/10/18 02:47:07;;;;;;;32.15;21.67;;;18.10;99.90;;;;;;5085507;28;20162;-70
2022/10/18 02:49:35;;;;;;;29.17;19.95;;;18.10;99.90;;;;;;5052235;28;20052;-70
2022/10/18 02:52:03;;;;;;;32.50;21.77;;;18.10;99.90;;;;;;5086295;28;20048;-70
2022/10/18 02:54:31;;;;;;;28.13;19.35;;;18.10;99.90;;;;;;5053356;28;20130;-70
2022/10/18 02:56:58;;;;;;;32.15;21.67;;;18.00;99.90;;;;;;5069360;28;20052;-72
2022/10/18 02:59:26;;;;;;;32.60;20.25;;;18.00;99.90;;;;;;5085512;28;20047;-72
2022/10/18 03:01:54;;;;;;;30.38;18.90;;;18.00;99.90;;;;;;5085421;28;20125;-76
2022/10/18 03:04:21;;;;;;;24.67;16.55;;;18.00;99.90;;;;;;5051625;28;20048;-72
2022/10/18 03:06:49;;;;;;;30.38;18.13;;;18.00;99.90;;;;;;5086165;28;20060;-69
2022/10/18 03:09:16;;;;;;;28.98;18.17;;;18.00;99.90;;;;;;5068898;28;20089;-70
2022/10/18 03:11:44;;;;;;;23.90;15.55;;;17.90;99.90;;;;;;5052470;28;20056;-69
2022/10/18 03:14:12;;;;;;;24.67;17.10;;;17.90;99.90;;;;;;5086674;28;20047;-69
2022/10/18 03:16:40;;;;;;;21.98;14.15;;;17.80;99.90;;;;;;5085281;28;20146;-72
2022/10/18 03:19:08;;;;;;;26.67;17.35;;;17.90;99.90;;;;;;5068112;28;20048;-73
2022/10/18 03:21:35;;;;;;;23.70;15.70;;;17.80;99.90;;;;;;5083952;28;20352;-73
2022/10/18 03:24:03;;;;;;;26.00;17.67;;;17.80;99.90;;;;;;5085799;28;20044;-73
2022/10/18 03:26:31;;;;;;;22.15;14.80;;;17.80;99.90;;;;;;5067760;28;20052;-69
2022/10/18 03:28:58;;;;;;;21.08;15.95;;;17.80;99.90;;;;;;5084854;28;20040;-68
2022/10/18 03:31:26;;;;;;;27.85;18.02;;;17.80;99.90;;;;;;5085299;28;20163;-69
2022/10/18 03:33:54;;;;;;;23.98;16.73;;;17.70;99.90;;;;;;5068421;28;20516;-71
2022/10/18 03:36:21;;;;;;;28.98;18.80;;;17.70;99.90;;;;;;5084604;28;20362;-69
2022/10/18 03:38:49;;;;;;;25.77;17.30;;;17.70;99.90;;;;;;5084143;28;20409;-69
2022/10/18 03:41:16;;;;;;;25.02;17.38;;;17.70;99.90;;;;;;5067292;28;20047;-73
2022/10/18 03:43:44;;;;;;;25.60;16.60;;;17.70;99.90;;;;;;5085748;28;20134;-69
2022/10/18 03:46:12;;;;;;;24.80;16.17;;;17.70;99.90;;;;;;5085263;28;20101;-71
2022/10/18 03:48:40;;;;;;;25.25;16.38;;;17.70;99.90;;;;;;5083992;28;20052;-70
2022/10/18 03:51:08;;;;;;;26.75;17.48;;;17.70;99.90;;;;;;5084398;28;20180;-70
2022/10/18 03:53:36;;;;;;;28.73;18.88;;;17.70;99.90;;;;;;5084487;28;20036;-69
2022/10/18 03:56:04;;;;;;;29.35;18.30;;;17.70;99.90;;;;;;5086467;28;20056;-70
2022/10/18 03:58:31;;;;;;;28.98;18.45;;;17.70;99.90;;;;;;5084585;28;20044;-69
2022/10/18 04:01:00;;;;;;;28.25;19.42;;;17.70;99.90;;;;;;5084732;28;20040;-69
2022/10/18 04:03:27;;;;;;;30.35;20.00;;;17.70;99.90;;;;;;5066535;28;20048;-70
2022/10/18 04:05:56;;;;;;;29.70;20.67;;;17.70;99.90;;;;;;5083448;28;20044;-71
2022/10/18 04:08:23;;;;;;;29.58;20.10;;;17.70;99.90;;;;;;5085576;28;20043;-69
2022/10/18 04:10:51;;;;;;;29.98;20.08;;;17.80;99.90;;;;;;5067250;28;20075;-71
2022/10/18 04:13:19;;;;;;;36.35;20.98;;;17.70;99.90;;;;;;5084060;28;20051;-74
2022/10/18 04:15:47;;;;;;;31.70;20.80;;;17.80;99.90;;;;;;5086140;28;20056;-71
2022/10/18 04:18:14;;;;;;;27.70;19.20;;;17.80;99.90;;;;;;5085594;28;20048;-71
2022/10/18 04:20:42;;;;;;;29.08;19.10;;;17.80;99.90;;;;;;5084661;28;20039;-70
2022/10/18 04:23:10;;;;;;;31.02;17.85;;;17.80;99.90;;;;;;5067028;28;20048;-69
2022/10/18 04:25:38;;;;;;;31.45;20.48;;;17.80;99.90;;;;;;5083532;28;20492;-70
2022/10/18 04:28:06;;;;;;;30.35;19.27;;;17.70;99.90;;;;;;5083359;28;20052;-72
2022/10/18 04:30:34;;;;;;;26.83;19.08;;;17.70;99.90;;;;;;5077157;28;20109;-73
2022/10/18 04:33:03;;;;;;;31.75;19.83;;;17.70;99.90;;;;;;5079050;28;20105;-72
2022/10/18 04:35:31;;;;;;;31.83;19.85;;;17.70;99.90;;;;;;5087591;28;20062;-72
2022/10/18 04:37:59;;;;;;;36.20;21.60;;;17.70;99.90;;;;;;5087734;28;20044;-69
2022/10/18 04:40:30;;;;;;;32.33;18.98;;;17.70;99.90;;;;;;5071718;28;20047;-70
2022/10/18 04:43:04;;;;;;;31.00;20.95;;;17.70;99.90;;;;;;5071005;28;20154;-69
2022/10/18 04:45:35;;;;;;;31.17;20.13;;;17.70;99.90;;;;;;5087288;28;20139;-73
2022/10/18 04:48:06;;;;;;;30.60;20.30;;;17.70;99.90;;;;;;5071027;28;20067;-70
2022/10/18 04:50:34;;;;;;;31.00;19.33;;;17.70;99.90;;;;;;5054787;28;20048;-69
2022/10/18 04:53:13;;;;;;;29.38;20.00;;;17.70;99.90;;;;;;5070491;28;20079;-71
2022/10/18 04:55:53;;;;;;;28.98;20.02;;;17.70;99.90;;;;;;5086726;28;20050;-69
2022/10/18 04:58:21;;;;;;;31.23;20.20;;;17.70;99.90;;;;;;5087272;28;20055;-69
2022/10/18 05:00:49;;;;;;;31.50;20.30;;;17.70;99.90;;;;;;5070230;28;20056;-69
2022/10/18 05:03:18;;;;;;;29.77;18.50;;;17.70;99.90;;;;;;5087682;28;20147;-70
2022/10/18 05:05:46;;;;;;;32.38;19.83;;;17.70;99.90;;;;;;5070528;28;20055;-72
2022/10/18 05:08:27;;;;;;;29.70;18.92;;;17.70;99.90;;;;;;5069575;28;20055;-69
2022/10/18 05:10:55;;;;;;;29.48;19.23;;;17.60;99.90;;;;;;5087213;28;20498;-70
2022/10/18 05:13:23;;;;;;;35.22;20.30;;;17.70;99.90;;;;;;5086649;28;20113;-69
2022/10/18 05:15:51;;;;;;;34.53;20.52;;;17.60;99.90;;;;;;5086825;28;20083;-70
2022/10/18 05:18:19;;;;;;;31.77;21.33;;;17.70;99.90;;;;;;5070481;28;20524;-69
2022/10/18 05:20:47;;;;;;;34.75;19.00;;;17.70;99.90;;;;;;5087021;28;20406;-71
2022/10/18 05:23:14;;;;;;;34.03;20.77;;;17.70;99.90;;;;;;5087136;28;20502;-70
2022/10/18 05:25:43;;;;;;;35.22;19.17;;;17.80;99.90;;;;;;5086759;28;20047;-77
2022/10/18 05:28:10;;;;;;;29.13;18.70;;;17.90;99.90;;;;;;5070646;28;20493;-72
2022/10/18 05:30:53;;;;;;;35.50;19.65;;;17.90;99.90;;;;;;5070123;28;20064;-70
2022/10/18 05:33:21;;;;;;;29.52;20.23;;;18.00;99.90;;;;;;5069979;28;20044;-69
2022/10/18 05:35:49;;;;;;;34.30;20.52;;;18.10;99.90;;;;;;5070963;28;20070;-69
2022/10/18 05:38:17;;;;;;;25.63;18.65;;;18.20;99.90;;;;;;5070592;28;20076;-69
2022/10/18 05:40:45;;;;;;;29.05;18.95;;;18.40;99.90;;;;;;5087752;28;20794;-69
2022/10/18 05:43:13;;;;;;;30.30;19.80;;;18.50;99.90;;;;;;5063814;28;20043;-69
2022/10/18 05:45:47;;;;;;;29.48;19.20;;;18.70;99.90;;;;;;5076204;28;20040;-72
2022/10/18 05:48:15;;;;;;;26.17;18.45;;;18.90;99.90;;;;;;5087466;28;20088;-69
2022/10/18 05:50:44;;;;;;;30.98;19.65;;;19.10;99.90;;;;;;5078413;28;20098;-72
2022/10/18 05:53:12;;;;;;;26.85;17.10;;;19.20;99.90;;;;;;5079946;28;20145;-72
2022/10/18 05:56:01;;;;;;;27.10;16.00;;;19.40;99.90;;;;;;5064306;28;20045;-69
2022/10/18 05:58:29;;;;;;;25.13;17.27;;;19.60;99.90;;;;;;5064038;28;20037;-70
2022/10/18 06:00:59;;;;;;;28.75;18.60;;;19.80;99.90;;;;;;5061371;28;20062;-72
2022/10/18 06:03:29;;;;;;;28.67;16.85;;;20.10;99.90;;;;;;5068814;28;20568;-69
2022/10/18 06:06:04;;;;;;;27.42;15.88;;;20.30;99.90;;;;;;5084215;28;20043;-68
2022/10/18 06:08:33;;;;;;;26.27;16.98;;;20.50;99.90;;;;;;5086050;28;20055;-72
2022/10/18 06:11:12;;;;;;;23.60;15.02;;;20.70;99.90;;;;;;5063598;28;20049;-71
2022/10/18 06:13:42;;;;;;;20.80;14.15;;;21.00;99.90;;;;;;5084540;28;20044;-72
2022/10/18 06:16:11;;;;;;;25.85;16.02;;;21.00;99.90;;;;;;5056700;28;20129;-72
2022/10/18 06:18:40;;;;;;;26.00;17.63;;;20.90;99.90;;;;;;5089496;28;20565;-70
2022/10/18 06:21:08;;;;;;;24.48;16.08;;;20.70;99.90;;;;;;5088092;28;20058;-71
2022/10/18 06:23:36;;;;;;;24.40;15.55;;;20.60;99.90;;;;;;5090051;28;20209;-71
2022/10/18 06:26:06;;;;;;;28.88;18.20;;;20.40;99.90;;;;;;5090137;28;20048;-70
2022/10/18 06:28:36;;;;;;;25.17;16.45;;;20.30;99.90;;;;;;5093667;28;20047;-70
2022/10/18 06:31:04;;;;;;;27.83;15.68;;;20.20;99.90;;;;;;5072458;28;20816;-69
2022/10/18 06:33:33;;;;;;;24.77;16.77;;;20.30;99.90;;;;;;5088956;28;20078;-70
2022/10/18 06:36:06;;;;;;;27.45;17.83;;;20.50;99.90;;;;;;5074926;28;20060;-73
2022/10/18 06:38:34;;;;;;;28.80;16.67;;;20.90;99.90;;;;;;5092295;28;20039;-69
2022/10/18 06:41:04;;;;;;;25.63;15.18;;;21.30;99.90;;;;;;5091895;28;20055;-72
2022/10/18 06:43:32;;;;;;;20.70;14.52;;;21.70;99.90;;;;;;5088906;28;20071;-78
2022/10/18 06:46:04;;;;;;;25.95;15.63;;;22.10;99.90;;;;;;5084327;28;20058;-71
2022/10/18 06:48:37;;;;;;;21.05;14.13;;;22.30;99.90;;;;;;5076395;28;20090;-73
2022/10/18 06:51:06;;;;;;;24.27;15.00;;;22.50;99.90;;;;;;5044895;28;20091;-70
2022/10/18 06:53:36;;;;;;;22.35;16.30;;;22.80;99.90;;;;;;4898490;28;20870;-69
2022/10/18 06:56:12;;;;;;;22.80;15.80;;;23.00;99.90;;;;;;4707630;28;20737;-70
2022/10/18 06:58:39;;;;;;;22.73;14.73;;;23.20;99.90;;;;;;5078069;28;20049;-72
2022/10/18 07:01:10;;;;;;;19.88;14.15;;;23.40;99.90;;;;;;5077687;28;20040;-69
2022/10/18 07:03:38;;;;;;;22.30;13.55;;;23.50;99.90;;;;;;5069643;28;20364;-71
2022/10/18 07:06:08;;;;;;;18.70;13.43;;;23.60;99.90;;;;;;4790089;28;20807;-69
2022/10/18 07:08:38;;;;;;;22.40;14.48;;;23.70;99.90;;;;;;5085533;28;20873;-71
2022/10/18 07:11:07;;;;;;;23.48;14.85;;;23.70;99.90;;;;;;5052521;28;20044;-78
2022/10/18 07:13:35;;;;;;;20.40;14.02;;;23.70;99.90;;;;;;5084584;28;20079;-75
2022/10/18 07:16:05;;;;;;;18.42;13.20;;;23.70;99.90;;;;;;5078860;28;20048;-71
2022/10/18 07:18:35;;;;;;;24.55;14.85;;;23.70;99.90;;;;;;5070154;28;20055;-70
2022/10/18 07:21:10;;;;;;;20.45;13.60;;;23.80;99.90;;;;;;5075659;28;20128;-71
2022/10/18 07:23:42;;;;;;;20.87;13.63;;;23.70;99.90;;;;;;5062924;28;20051;-71
2022/10/18 07:26:22;;;;;;;24.02;14.80;;;23.80;99.90;;;;;;5060553;28;20051;-71
2022/10/18 07:28:57;;;;;;;19.67;13.80;;;23.80;99.90;;;;;;5061785;28;20048;-68
2022/10/18 07:31:26;;;;;;;21.75;13.82;;;23.80;99.90;;;;;;5062576;28;20141;-71
2022/10/18 07:33:55;;;;;;;19.77;13.68;;;23.90;99.90;;;;;;5051441;28;20149;-74
2022/10/18 07:36:24;;;;;;;19.63;13.15;;;23.90;99.90;;;;;;5082233;28;20060;-70
2022/10/18 07:38:52;;;;;;;20.13;13.23;;;24.00;99.90;;;;;;5081666;28;20132;-71
2022/10/18 07:41:21;;;;;;;23.85;13.60;;;24.10;99.90;;;;;;5058028;28;20883;-76
2022/10/18 07:43:50;;;;;;;18.42;11.43;;;24.00;99.90;;;;;;5075596;28;20390;-70
2022/10/18 07:46:20;;;;;;;22.48;12.18;;;23.90;99.90;;;;;;5076752;28;20487;-69
2022/10/18 07:48:49;;;;;;;16.67;12.07;;;23.80;99.90;;;;;;5037094;28;20052;-70
2022/10/18 07:51:20;;;;;;;18.80;12.35;;;23.70;99.90;;;;;;5078480;28;20085;-77
2022/10/18 07:53:48;;;;;;;17.20;11.45;;;23.80;99.90;;;;;;5060688;28;20044;-71
2022/10/18 07:56:19;;;;;;;16.45;11.38;;;23.90;99.90;;;;;;5073898;28;20191;-71
2022/10/18 07:58:52;;;;;;;18.13;11.57;;;24.10;99.90;;;;;;5073662;28;20533;-71
2022/10/18 08:01:22;;;;;;;17.30;10.18;;;24.30;99.90;;;;;;5049736;28;20135;-72
2022/10/18 08:03:50;;;;;;;13.93;9.45;;;24.40;99.90;;;;;;5064664;28;20074;-70
2022/10/18 08:06:20;;;;;;;19.13;11.48;;;24.50;99.90;;;;;;5067232;28;20059;-79
2022/10/18 08:08:48;;;;;;;15.68;11.77;;;24.50;99.90;;;;;;5083390;28;20823;-70
2022/10/18 08:11:19;;;;;;;16.42;12.32;;;24.30;99.90;;;;;;5062863;28;20047;-79
2022/10/18 08:13:47;;;;;;;16.00;10.35;;;24.10;99.90;;;;;;5081138;28;20056;-71
2022/10/18 08:16:18;;;;;;;18.80;12.85;;;23.90;99.90;;;;;;5052541;28;20044;-71
2022/10/18 08:18:46;;;;;;;18.85;12.32;;;23.80;99.90;;;;;;5083227;28;20572;-70
2022/10/18 08:21:15;;;;;;;20.27;11.73;;;23.90;99.90;;;;;;5096096;28;20467;-69
2022/10/18 08:23:43;;;;;;;16.73;12.95;;;24.00;99.90;;;;;;5081148;28;20051;-70
2022/10/18 08:26:14;;;;;;;16.38;10.73;;;24.10;99.90;;;;;;5078996;28;20040;-69
2022/10/18 08:28:42;;;;;;;18.02;10.50;;;24.30;99.90;;;;;;5064832;28;20079;-70
2022/10/18 08:31:16;;;;;;;21.52;11.02;;;24.20;99.90;;;;;;5083458;28;20048;-71
2022/10/18 08:33:45;;;;;;;16.77;9.55;;;24.30;99.90;;;;;;5084779;28;20052;-74
2022/10/18 08:36:14;;;;;;;15.55;10.32;;;24.20;99.90;;;;;;5059658;28;20032;-69
2022/10/18 08:38:43;;;;;;;16.08;9.77;;;24.40;99.90;;;;;;5060245;28;20058;-75
2022/10/18 08:41:47;;;;;;;19.13;10.15;;;24.50;99.90;;;;;;5060672;28;20247;-79
2022/10/18 08:44:27;;;;;;;17.63;10.65;;;24.50;99.90;;;;;;5073490;28;20044;-70
2022/10/18 08:47:05;;;;;;;12.63;8.68;;;24.60;99.90;;;;;;5077152;28;20156;-73
2022/10/18 08:49:45;;;;;;;13.13;8.85;;;24.60;99.90;;;;;;5084049;28;20054;-75
2022/10/18 08:52:32;;;;;;;13.35;8.52;;;24.60;99.90;;;;;;5080684;28;20044;-69
2022/10/18 08:55:08;;;;;;;14.68;8.48;;;24.60;99.90;;;;;;5084485;28;20040;-69
2022/10/18 08:57:36;;;;;;;;;;;24.70;99.90;;;;;;5067606;28;20044;-69
2022/10/18 09:00:27;;;;;;;10.98;7.50;;;24.70;99.90;;;;;;5085612;28;19924;-76
2022/10/18 09:03:00;;;;;;;14.02;7.82;;;24.80;99.90;;;;;;5085239;28;20053;-73
2022/10/18 09:05:52;;;;;;;12.38;8.57;;;24.60;99.90;;;;;;5065830;28;20094;-70
2022/10/18 09:08:42;;;;;;;16.13;8.00;;;24.70;99.90;;;;;;5066794;28;20051;-70
2022/10/18 09:11:35;;;;;;;11.38;7.22;;;24.70;99.90;;;;;;5083803;28;20107;-70
2022/10/18 09:14:19;;;;;;;12.07;7.78;;;24.60;99.90;;;;;;5081681;28;20070;-72
2022/10/18 09:16:54;;;;;;;13.73;7.80;;;24.50;99.90;;;;;;5067615;28;20048;-69
2022/10/18 09:19:24;;;;;;;13.43;7.25;;;24.50;99.90;;;;;;5084950;28;20051;-69
2022/10/18 09:22:08;;;;;;;12.45;8.15;;;24.50;99.90;;;;;;5086686;28;20052;-71
2022/10/18 09:24:50;;;;;;;14.18;9.00;;;24.40;99.90;;;;;;5087764;28;20047;-70
2022/10/18 09:27:23;;;;;;;11.00;7.18;;;24.50;99.90;;;;;;5066625;28;20448;-75
2022/10/18 09:30:40;;;;;;;16.73;8.60;;;24.60;99.90;;;;;;5075284;28;20131;-72
2022/10/18 09:33:33;;;;;;;11.83;7.63;;;24.70;99.90;;;;;;5064978;28;20082;-71
2022/10/18 09:36:04;;;;;;;16.55;8.60;;;24.80;99.90;;;;;;5078876;28;20496;-73
2022/10/18 09:38:41;;;;;;;9.50;6.72;;;24.80;99.90;;;;;;5091369;28;20498;-70
2022/10/18 09:41:34;;;;;;;11.85;8.60;;;25.00;99.90;;;;;;5085858;28;20044;-69
2022/10/18 09:44:25;;;;;;;10.27;6.72;;;24.90;99.90;;;;;;5084433;28;20040;-77
2022/10/18 09:47:11;;;;;;;13.32;7.43;;;24.90;99.90;;;;;;5075309;28;20064;-75
2022/10/18 09:49:50;;;;;;;9.82;6.57;;;24.80;99.90;;;;;;5068015;28;20505;-71
2022/10/18 09:52:26;;;;;;;11.98;7.13;;;24.80;99.90;;;;;;5068272;28;20059;-72
2022/10/18 09:55:00;;;;;;;8.27;6.32;;;24.90;99.90;;;;;;5069244;28;20167;-71
2022/10/18 09:57:54;;;;;;;14.45;7.78;;;24.90;99.90;;;;;;5081705;28;20063;-71
2022/10/18 10:00:34;;;;;;;12.98;7.70;;;24.90;99.90;;;;;;5074653;28;20123;-72
2022/10/18 10:03:10;;;;;;;13.32;7.85;;;24.90;99.90;;;;;;5080992;28;20044;-71
2022/10/18 10:05:38;;;;;;;12.55;8.27;;;24.90;99.90;;;;;;5082328;28;20056;-68
2022/10/18 10:08:06;;;;;;;13.70;6.88;;;24.90;99.90;;;;;;5081864;28;20049;-74
2022/10/18 10:10:37;;;;;;;9.93;6.38;;;24.80;99.90;;;;;;5047901;28;20048;-73
2022/10/18 10:13:21;;;;;;;8.90;6.25;;;24.80;99.90;;;;;;5074455;28;20098;-74
2022/10/18 10:16:00;;;;;;;11.20;6.47;;;24.60;99.90;;;;;;5077683;28;20051;-70
2022/10/18 10:18:33;;;;;;;11.15;7.45;;;24.60;99.90;;;;;;5069328;28;20453;-74
2022/10/18 10:21:05;;;;;;;11.23;7.03;;;24.60;99.90;;;;;;5087546;28;20509;-75
2022/10/18 10:23:51;;;;;;;13.85;8.80;;;24.60;99.90;;;;;;5073750;28;20060;-70
2022/10/18 10:26:37;;;;;;;11.52;7.35;;;24.50;99.90;;;;;;5066255;28;20160;-70
2022/10/18 10:29:43;;;;;;;11.50;7.40;;;24.50;99.90;;;;;;5062863;28;20097;-71
2022/10/18 10:32:16;;;;;;;10.32;6.95;;;24.50;99.90;;;;;;5064834;28;20059;-69
2022/10/18 10:34:44;;;;;;;10.82;7.75;;;24.50;99.90;;;;;;5063016;28;20040;-79
2022/10/18 10:37:34;;;;;;;13.38;7.65;;;24.60;99.90;;;;;;5063877;28;20052;-70
2022/10/18 10:40:14;;;;;;;14.27;8.55;;;24.70;99.90;;;;;;5048062;28;20131;-74
2022/10/18 10:43:03;;;;;;;13.65;8.52;;;24.50;99.90;;;;;;5063360;28;20681;-75
2022/10/18 10:45:39;;;;;;;15.30;7.97;;;24.50;99.90;;;;;;5045862;28;20075;-73
2022/10/18 10:48:13;;;;;;;11.60;8.20;;;24.50;99.90;;;;;;5062137;28;20797;-77
2022/10/18 10:51:05;;;;;;;12.40;7.28;;;24.50;99.90;;;;;;5045874;28;20141;-77
2022/10/18 10:53:39;;;;;;;11.68;7.78;;;24.60;99.90;;;;;;5046212;28;20580;-70
2022/10/18 10:56:17;;;;;;;10.88;7.05;;;24.50;99.90;;;;;;5064702;28;20041;-72
2022/10/18 10:58:45;;;;;;;10.73;7.50;;;24.60;99.90;;;;;;5064532;28;20048;-69
2022/10/18 11:01:18;;;;;;;14.10;9.05;;;24.70;99.90;;;;;;5065653;28;20858;-70
2022/10/18 11:03:51;;;;;;;11.73;7.35;;;24.60;99.90;;;;;;5048012;28;20467;-70
2022/10/18 11:06:38;;;;;;;9.50;6.05;;;24.60;99.90;;;;;;5064092;28;20106;-72
2022/10/18 11:09:35;;;;;;;9.82;6.97;;;24.50;99.90;;;;;;5046969;28;20135;-70
2022/10/18 11:12:25;;;;;;;;;;;24.50;99.90;;;;;;5063331;28;20091;-70
2022/10/18 11:15:08;;;;;;;11.40;6.85;;;24.50;99.90;;;;;;5057455;28;19924;-70
2022/10/18 11:17:58;;;;;;;9.02;6.15;;;24.50;99.90;;;;;;5063326;28;20494;-70
2022/10/18 11:20:37;;;;;;;10.80;7.32;;;24.50;99.90;;;;;;5063598;28;20068;-70
2022/10/18 11:23:12;;;;;;;22.67;7.57;;;24.50;99.90;;;;;;5063782;28;20041;-70
2022/10/18 11:25:58;;;;;;;9.20;5.45;;;24.60;99.90;;;;;;5029771;28;20060;-71
2022/10/18 11:28:48;;;;;;;11.18;6.72;;;24.50;99.90;;;;;;5064174;28;20049;-71
2022/10/18 11:31:40;;;;;;;11.95;6.65;;;24.50;99.90;;;;;;5046402;28;20098;-71
2022/10/18 11:34:14;;;;;;;9.68;6.63;;;24.40;99.90;;;;;;5062917;28;20048;-71
2022/10/18 11:36:52;;;;;;;8.93;6.00;;;24.50;99.90;;;;;;5046555;28;20450;-74
2022/10/18 11:39:42;;;;;;;8.93;6.60;;;24.30;99.90;;;;;;5045524;28;20040;-75
2022/10/18 11:42:29;;;;;;;14.48;6.50;;;24.30;99.90;;;;;;5061362;28;20691;-70
2022/10/18 11:45:16;;;;;;;8.57;6.00;;;24.30;99.90;;;;;;5063178;28;20059;-69
2022/10/18 11:48:02;;;;;;;11.82;7.50;;;24.30;99.90;;;;;;5062525;28;20044;-73
2022/10/18 11:50:52;;;;;;;9.18;5.95;;;24.30;99.90;;;;;;5063849;28;20142;-71
2022/10/18 11:53:20;;;;;;;13.98;7.00;;;24.30;99.90;;;;;;5063584;28;20105;-71
2022/10/18 11:56:00;;;;;;;9.52;6.32;;;24.30;99.90;;;;;;5061837;28;20080;-74
2022/10/18 11:58:45;;;;;;;11.45;6.20;;;24.30;99.90;;;;;;5062121;28;20097;-69
2022/10/18 12:01:26;;;;;;;12.23;6.50;;;24.30;99.90;;;;;;5061100;28;20063;-71
2022/10/18 12:03:57;;;;;;;9.38;6.00;;;24.30;99.90;;;;;;5062729;28;20282;-70
2022/10/18 12:06:32;;;;;;;10.95;5.18;;;24.30;99.90;;;;;;5046647;28;20040;-79
2022/10/18 12:09:22;;;;;;;17.20;6.68;;;24.20;99.90;;;;;;5062503;28;20364;-71
2022/10/18 12:11:56;;;;;;;13.02;7.57;;;24.30;99.90;;;;;;5052569;28;20054;-74
2022/10/18 12:14:37;;;;;;;8.88;6.63;;;24.30;99.90;;;;;;5063961;28;20613;-70
2022/10/18 12:17:20;;;;;;;15.85;6.72;;;24.30;99.90;;;;;;5064023;28;20076;-70
2022/10/18 12:20:31;;;;;;;10.75;5.88;;;24.20;99.90;;;;;;5062737;28;20051;-73
2022/10/18 12:23:00;;;;;;;11.30;6.63;;;24.00;99.90;;;;;;5044759;28;20049;-71
2022/10/18 12:25:35;;;;;;;8.40;5.88;;;23.90;99.90;;;;;;5045037;28;20051;-70
2022/10/18 12:28:23;;;;;;;8.88;6.38;;;23.90;99.90;;;;;;5045845;28;20071;-71
2022/10/18 12:31:14;;;;;;;7.75;5.65;;;23.90;99.90;;;;;;5061732;28;20044;-73
2022/10/18 12:33:47;;;;;;;8.32;7.05;;;23.80;99.90;;;;;;5061143;28;20044;-72
2022/10/18 12:36:27;;;;;;;11.30;6.05;;;23.70;99.90;;;;;;5060372;28;20056;-73
2022/10/18 12:39:08;;;;;;;8.50;5.65;;;23.70;99.90;;;;;;5044366;28;20135;-77
2022/10/18 12:41:37;;;;;;;11.20;5.45;;;23.60;99.90;;;;;;5061455;28;20036;-73
2022/10/18 12:44:30;;;;;;;9.57;5.80;;;23.50;99.90;;;;;;5045551;28;20056;-72
2022/10/18 12:47:03;;;;;;;7.65;5.28;;;23.50;99.90;;;;;;5029357;28;20510;-72
2022/10/18 12:49:34;;;;;;;5.90;5.20;;;23.50;99.90;;;;;;5066663;28;20037;-75
2022/10/18 12:52:06;;;;;;;8.07;5.55;;;23.50;99.90;;;;;;5065256;28;20169;-71
2022/10/18 12:54:37;;;;;;;7.50;4.45;;;23.40;99.90;;;;;;5084655;28;20531;-71
2022/10/18 12:57:21;;;;;;;6.47;4.57;;;23.30;99.90;;;;;;5061859;28;20158;-70
2022/10/18 12:59:49;;;;;;;7.93;5.50;;;23.20;99.90;;;;;;5067723;28;20052;-71
2022/10/18 13:02:24;;;;;;;6.47;4.60;;;23.20;99.90;;;;;;5056934;28;20147;-74
2022/10/18 13:04:53;;;;;;;6.45;4.07;;;23.10;99.90;;;;;;5076843;28;20512;-70
2022/10/18 13:07:30;;;;;;;7.57;4.85;;;23.00;99.90;;;;;;5069202;28;20506;-72